Auburntown, Tennessee
Current Conditions -  °F | °C
As of 3:53 PM on Monday 24 Nov 2014 (Local Time) from KBNA Reporting Station
Broken Clouds Broken Clouds  
Wind Chill: 13°   Ceiling: 20000
Heat Index: 13°   Visibility: 10mi
Dew Point: -1°   Wind: 10mph
Humidity: 39%   Direction: 230°SW
Pressure: 29.86"   Gusts: NA
Location:  35.95°N, 86.1°W
Report Text: KBNA 242153Z 23009KT 10SM BKN200 13/M01 A2986 RMK AO2 SLP108 T01331006
Loading
Personal Weather Stations






























Interactive Weather Map New forecast layout! Learn more

10-Day Weather Forecast

Advertisements
Track Severe Weather on mobile